Skip Navigation Links
NOAA logo - Click to go to the NOAA homepage
NOAA's National Weather Service
Alaska Aviation Weather Unit
  NWS logo - Click to go to the NWS homepage
Left Navbar Graphic     21 AKDT = 05 GMT

   
NOAA is celebrating 200 years of science, service, and stewardship. Visit the NOAA 200th celebration Web site to learn more.
USA.gov is the U.S. Government's official Web portal to all Federal, state and local government Web resources and services.
Facebook
NWS on Facebook

Important Change Regarding the AAWU Web Presence

 

Over the last several months, the AAWU has been working to navigate its webpages to a nationally supported server. Security, as well as other needs, have necessitated the change.  In the process, we have made an effort to enhance the functionality of our website, as well as some of our products. As of June 27, 2017, aawu.arh.noaa.gov will be discontinued. The new AAWU web address is weather.gov/aawu. It is now live and will run in-parallel with the old site until it is discontinued. Please send any feedback or questions regarding the new webpages to nws.ar.aawu.webauthors@noaa.gov.  Thank you for your patience during this time of transition.
AAWU Home :: Display TAF Add Bookmark
TAF PATK 250250Z 2503/2524 VRB05KT P6SM VCSH SCT080
      TEMPO 2503/2504 -SHRA BKN080
     FM250600 VRB03KT P6SM SCT100=
METAR PATK 242353Z 21007KT 10SM SCT050 23/09 A3001 RMK AO2 SLP165
     T02280089 10233 20144 57022=

METAR PATK 250053Z VRB05KT 10SM SCT080 24/09 A2999 RMK AO2 SLP157
     T02440089=

METAR PATK 250153Z VRB03KT 10SM CLR 24/07 A2998 RMK AO2 SLP153
     T02390072=

METAR PATK 250253Z 23005KT 10SM SCT100 23/08 A2997 RMK AO2 SLP150
     T02330078 56015=

METAR PATK 250353Z AUTO 18010KT 10SM CLR 22/09 A2997 RMK AO2 SLP151
     T02220094=

METAR PATK 250453Z AUTO 18007KT 10SM BKN080 OVC090 21/11 A3000 RMK AO2
     SLP160 T02060106 TSNO=


NOAA's National Weather Service
Alaska Aviation Weather Unit
6930 Sand Lake Road
Anchorage, AK 99502-1845
Disclaimer
Credits
Glossary
Privacy Policy
About Us
Career Opportunities
Contact AAWU Internet Services Site last modified: April, 17th 2012